Airfield :
LOGIN :

Register | Disclaimer

   EN    FR    IT 

 










Legend :    VFR   Marginal VFR   IFR   Intensive IFR   Very Intensive IFR
Visi :
Ceiling :
>= 8 km
>= 3000ft
5 to 8 km
1000 to 3000 ft
1500m to 5 km
500 to 1000 ft
800 to 1500m
200 to 500 ft
< 800m
< 200 ft
Symbols :   Thunderstorms  Fog  Heavy snow  Heavy precipitations  Wind > 20 kt
SIGMETs :     Misc.  Thunderstorms  Icing  Turbulence  Mountain Waves  Volcanic Ashes






- Airport Elevation : 209 ft
- IATA code : CLY


LFKC - Calvi

CURRENT METAR :
  • 261030Z AUTO 24007KT 200V290 9999 BKN035 BKN041 14/06 Q1029 NOSIG

EXPIRED METARs :
  • 261000Z AUTO 23008KT 190V290 9999 SCT036 SCT042 13/06 Q1030 NOSIG
  • 260930Z AUTO 23009KT 190V290 9999 FEW037 13/05 Q1029 NOSIG
  • 260900Z AUTO 24008KT 200V360 9999 SCT036 13/05 Q1029 NOSIG
  • 260830Z AUTO VRB03KT 9999 BKN035 12/06 Q1029 NOSIG
  • 260800Z AUTO 15005KT 080V180 9999 FEW027 BKN036 09/05 Q1029 NOSIG
  • 260730Z AUTO VRB05KT 9999 SCT029 BKN036 07/04 Q1029 NOSIG

TAF TAF LFKC
Valid from the 26 at 09:00 until the 27 at 09:00 UTC


260800Z 2609/2709 18005KT 9999 BKN035 TX13/2612Z TN04/2706Z
BECMG 2610/2612 23010KT FEW035
BECMG 2617/2619 17005KT CAVOK
ATIS : +33 4 95 65 82 49



MET'MAP, your aeronautical weather chart ! - Copyright ORBIFLY December 2007 - Disclaimer

ORBIFLY MET'MAP TEAM :

Programming & Development : Alexandra Zaïnal
Original concept : Baudouin d'Aumeries
Technical & hardware support : Manuel Goepfert
Assistance : Marc-Olivier Méhu

Contact : metmap@orbifly.com




SOURCES & CREDITS :

   NOAA